sensor_id;sensor_type;location;lat;lon;timestamp;pressure;altitude;pressure_sealevel;temperature;humidity
21129;BME280;10722;51.910;8.352;2024-01-15T00:01:12;99292.44;;;0.85;100.00
21129;BME280;10722;51.910;8.352;2024-01-15T00:03:59;99291.41;;;0.80;100.00
21129;BME280;10722;51.910;8.352;2024-01-15T00:06:44;99291.47;;;0.82;100.00
21129;BME280;10722;51.910;8.352;2024-01-15T00:09:29;99287.25;;;0.82;100.00
21129;BME280;10722;51.910;8.352;2024-01-15T00:12:14;99286.38;;;0.82;100.00
21129;BME280;10722;51.910;8.352;2024-01-15T00:15:00;99290.19;;;0.95;100.00
21129;BME280;10722;51.910;8.352;2024-01-15T00:17:45;99280.63;;;0.87;100.00
21129;BME280;10722;51.910;8.352;2024-01-15T00:20:31;99269.13;;;0.99;100.00
21129;BME280;10722;51.910;8.352;2024-01-15T00:23:16;99261.41;;;0.97;100.00
21129;BME280;10722;51.910;8.352;2024-01-15T00:26:01;99268.00;;;0.91;100.00
21129;BME280;10722;51.910;8.352;2024-01-15T00:28:46;99262.34;;;0.99;100.00
21129;BME280;10722;51.910;8.352;2024-01-15T00:31:31;99274.97;;;0.96;100.00
21129;BME280;10722;51.910;8.352;2024-01-15T00:34:16;99257.94;;;0.95;100.00
21129;BME280;10722;51.910;8.352;2024-01-15T00:37:02;99257.47;;;1.07;100.00
21129;BME280;10722;51.910;8.352;2024-01-15T00:39:47;99243.06;;;1.07;100.00
21129;BME280;10722;51.910;8.352;2024-01-15T00:42:32;99261.22;;;1.18;100.00
21129;BME280;10722;51.910;8.352;2024-01-15T00:45:17;99246.66;;;1.14;100.00
21129;BME280;10722;51.910;8.352;2024-01-15T00:48:02;99252.59;;;1.13;100.00
21129;BME280;10722;51.910;8.352;2024-01-15T00:50:49;99241.63;;;1.16;100.00
21129;BME280;10722;51.910;8.352;2024-01-15T00:53:34;99244.31;;;1.20;100.00
21129;BME280;10722;51.910;8.352;2024-01-15T00:56:19;99237.91;;;1.06;100.00
21129;BME280;10722;51.910;8.352;2024-01-15T00:59:04;99250.66;;;1.06;100.00
21129;BME280;10722;51.910;8.352;2024-01-15T01:01:49;99237.81;;;1.03;100.00
21129;BME280;10722;51.910;8.352;2024-01-15T01:04:34;99235.09;;;0.97;100.00
21129;BME280;10722;51.910;8.352;2024-01-15T01:07:19;99243.34;;;1.17;100.00
21129;BME280;10722;51.910;8.352;2024-01-15T01:10:04;99232.31;;;1.16;100.00
21129;BME280;10722;51.910;8.352;2024-01-15T01:12:49;99228.56;;;1.05;100.00
21129;BME280;10722;51.910;8.352;2024-01-15T01:15:35;99221.25;;;0.88;100.00
21129;BME280;10722;51.910;8.352;2024-01-15T01:18:20;99216.91;;;0.86;100.00
21129;BME280;10722;51.910;8.352;2024-01-15T01:21:06;99217.59;;;0.80;100.00
21129;BME280;10722;51.910;8.352;2024-01-15T01:23:51;99216.81;;;0.83;100.00
21129;BME280;10722;51.910;8.352;2024-01-15T01:26:36;99216.06;;;0.85;100.00
21129;BME280;10722;51.910;8.352;2024-01-15T01:29:21;99210.13;;;0.86;100.00
21129;BME280;10722;51.910;8.352;2024-01-15T01:32:06;99210.22;;;0.89;100.00
21129;BME280;10722;51.910;8.352;2024-01-15T01:34:51;99203.94;;;0.78;100.00
21129;BME280;10722;51.910;8.352;2024-01-15T01:37:36;99203.91;;;0.77;100.00
21129;BME280;10722;51.910;8.352;2024-01-15T01:40:21;99213.16;;;0.75;100.00
21129;BME280;10722;51.910;8.352;2024-01-15T01:43:09;99203.72;;;0.71;100.00
21129;BME280;10722;51.910;8.352;2024-01-15T01:45:56;99198.66;;;0.72;100.00
21129;BME280;10722;51.910;8.352;2024-01-15T01:48:41;99202.47;;;0.85;100.00
21129;BME280;10722;51.910;8.352;2024-01-15T01:51:27;99195.28;;;0.73;100.00
21129;BME280;10722;51.910;8.352;2024-01-15T01:54:12;99188.47;;;0.72;100.00
21129;BME280;10722;51.910;8.352;2024-01-15T01:56:57;99192.22;;;0.83;100.00
21129;BME280;10722;51.910;8.352;2024-01-15T01:59:42;99190.34;;;0.78;100.00
21129;BME280;10722;51.910;8.352;2024-01-15T02:02:27;99187.19;;;0.85;100.00
21129;BME280;10722;51.910;8.352;2024-01-15T02:05:14;99183.66;;;0.81;100.00
21129;BME280;10722;51.910;8.352;2024-01-15T02:08:03;99177.13;;;0.89;100.00
21129;BME280;10722;51.910;8.352;2024-01-15T02:10:48;99177.81;;;0.84;100.00
21129;BME280;10722;51.910;8.352;2024-01-15T02:13:33;99169.38;;;0.85;100.00
21129;BME280;10722;51.910;8.352;2024-01-15T02:16:18;99166.91;;;0.88;100.00
21129;BME280;10722;51.910;8.352;2024-01-15T02:19:03;99162.72;;;0.90;100.00
21129;BME280;10722;51.910;8.352;2024-01-15T02:21:48;99169.31;;;0.83;100.00
21129;BME280;10722;51.910;8.352;2024-01-15T02:24:33;99165.84;;;0.81;100.00
21129;BME280;10722;51.910;8.352;2024-01-15T02:27:18;99160.03;;;0.85;100.00
21129;BME280;10722;51.910;8.352;2024-01-15T02:30:05;99169.38;;;0.85;100.00
21129;BME280;10722;51.910;8.352;2024-01-15T02:32:51;99147.34;;;0.87;100.00
21129;BME280;10722;51.910;8.352;2024-01-15T02:35:36;99164.22;;;0.83;100.00
21129;BME280;10722;51.910;8.352;2024-01-15T02:38:21;99166.06;;;0.87;100.00
21129;BME280;10722;51.910;8.352;2024-01-15T02:41:06;99171.75;;;0.80;100.00
21129;BME280;10722;51.910;8.352;2024-01-15T02:43:51;99170.94;;;0.81;100.00
21129;BME280;10722;51.910;8.352;2024-01-15T02:46:36;99165.22;;;0.88;100.00
21129;BME280;10722;51.910;8.352;2024-01-15T02:49:21;99161.75;;;0.86;100.00
21129;BME280;10722;51.910;8.352;2024-01-15T02:52:06;99157.44;;;0.84;100.00
21129;BME280;10722;51.910;8.352;2024-01-15T02:54:51;99166.25;;;0.94;100.00
21129;BME280;10722;51.910;8.352;2024-01-15T02:57:36;99170.50;;;0.95;100.00
21129;BME280;10722;51.910;8.352;2024-01-15T03:00:22;99176.09;;;0.83;100.00
21129;BME280;10722;51.910;8.352;2024-01-15T03:03:07;99171.00;;;0.83;100.00
21129;BME280;10722;51.910;8.352;2024-01-15T03:05:52;99157.34;;;0.81;100.00
21129;BME280;10722;51.910;8.352;2024-01-15T03:08:37;99164.22;;;0.83;100.00
21129;BME280;10722;51.910;8.352;2024-01-15T03:11:22;99165.84;;;0.81;100.00
21129;BME280;10722;51.910;8.352;2024-01-15T03:14:07;99153.16;;;0.83;100.00
21129;BME280;10722;51.910;8.352;2024-01-15T03:16:52;99169.41;;;0.86;100.00
21129;BME280;10722;51.910;8.352;2024-01-15T03:19:37;99167.25;;;0.99;100.00
21129;BME280;10722;51.910;8.352;2024-01-15T03:22:23;99178.97;;;0.94;100.00
21129;BME280;10722;51.910;8.352;2024-01-15T03:25:08;99173.03;;;0.93;100.00
21129;BME280;10722;51.910;8.352;2024-01-15T03:27:52;99166.28;;;0.95;100.00
21129;BME280;10722;51.910;8.352;2024-01-15T03:30:37;99151.13;;;1.00;100.00
21129;BME280;10722;51.910;8.352;2024-01-15T03:33:23;99157.19;;;1.03;100.00
21129;BME280;10722;51.910;8.352;2024-01-15T03:36:09;99159.03;;;1.07;100.00
21129;BME280;10722;51.910;8.352;2024-01-15T03:38:54;99147.66;;;0.96;100.00
21129;BME280;10722;51.910;8.352;2024-01-15T03:41:39;99150.22;;;0.98;100.00
21129;BME280;10722;51.910;8.352;2024-01-15T03:44:24;99146.81;;;0.97;100.00
21129;BME280;10722;51.910;8.352;2024-01-15T03:47:09;99141.63;;;0.94;100.00
21129;BME280;10722;51.910;8.352;2024-01-15T03:49:54;99137.47;;;0.96;100.00
21129;BME280;10722;51.910;8.352;2024-01-15T03:52:39;99138.41;;;1.00;100.00
21129;BME280;10722;51.910;8.352;2024-01-15T03:55:24;99143.59;;;1.03;100.00
21129;BME280;10722;51.910;8.352;2024-01-15T03:58:09;99138.50;;;1.03;100.00
21129;BME280;10722;51.910;8.352;2024-01-15T04:00:54;99148.75;;;1.04;100.00
21129;BME280;10722;51.910;8.352;2024-01-15T04:03:39;99149.28;;;0.94;100.00
21129;BME280;10722;51.910;8.352;2024-01-15T04:06:24;99151.84;;;0.96;100.00
21129;BME280;10722;51.910;8.352;2024-01-15T04:09:11;99158.88;;;1.03;100.00
21129;BME280;10722;51.910;8.352;2024-01-15T04:11:56;99149.59;;;1.05;100.00
21129;BME280;10722;51.910;8.352;2024-01-15T04:14:42;99145.38;;;1.05;100.00
21129;BME280;10722;51.910;8.352;2024-01-15T04:17:27;99150.31;;;1.01;100.00
21129;BME280;10722;51.910;8.352;2024-01-15T04:20:12;99145.41;;;1.07;100.00
21129;BME280;10722;51.910;8.352;2024-01-15T04:22:57;99151.41;;;1.09;100.00
21129;BME280;10722;51.910;8.352;2024-01-15T04:25:42;99144.94;;;1.19;100.00
21129;BME280;10722;51.910;8.352;2024-01-15T04:28:27;99149.13;;;1.18;100.00
21129;BME280;10722;51.910;8.352;2024-01-15T04:31:22;99145.38;;;1.05;100.00
21129;BME280;10722;51.910;8.352;2024-01-15T04:34:07;99138.16;;;1.19;100.00
21129;BME280;10722;51.910;8.352;2024-01-15T04:36:53;99131.34;;;1.20;100.00
21129;BME280;10722;51.910;8.352;2024-01-15T04:39:38;99148.09;;;1.11;100.00
21129;BME280;10722;51.910;8.352;2024-01-15T04:42:23;99147.16;;;1.08;100.00
21129;BME280;10722;51.910;8.352;2024-01-15T04:45:08;99127.97;;;0.91;100.00
21129;BME280;10722;51.910;8.352;2024-01-15T04:47:54;99142.31;;;0.88;100.00
21129;BME280;10722;51.910;8.352;2024-01-15T04:50:39;99138.47;;;0.74;100.00
21129;BME280;10722;51.910;8.352;2024-01-15T04:53:24;99149.25;;;0.67;100.00
21129;BME280;10722;51.910;8.352;2024-01-15T04:56:09;99141.78;;;0.72;100.00
21129;BME280;10722;51.910;8.352;2024-01-15T04:58:54;99146.69;;;0.65;100.00
21129;BME280;10722;51.910;8.352;2024-01-15T05:01:39;99140.06;;;0.71;100.00
21129;BME280;10722;51.910;8.352;2024-01-15T05:04:25;99138.19;;;0.65;100.00
21129;BME280;10722;51.910;8.352;2024-01-15T05:07:10;99144.38;;;0.73;100.00
21129;BME280;10722;51.910;8.352;2024-01-15T05:09:55;99137.66;;;0.75;100.00
21129;BME280;10722;51.910;8.352;2024-01-15T05:12:40;99140.25;;;0.77;100.00
21129;BME280;10722;51.910;8.352;2024-01-15T05:15:25;99147.91;;;0.77;100.00
21129;BME280;10722;51.910;8.352;2024-01-15T05:18:10;99149.66;;;0.79;100.00
21129;BME280;10722;51.910;8.352;2024-01-15T05:20:55;99152.06;;;0.75;100.00
21129;BME280;10722;51.910;8.352;2024-01-15T05:23:40;99160.81;;;0.83;100.00
21129;BME280;10722;51.910;8.352;2024-01-15T05:26:25;99158.94;;;0.77;100.00
21129;BME280;10722;51.910;8.352;2024-01-15T05:29:10;99153.06;;;0.80;100.00
21129;BME280;10722;51.910;8.352;2024-01-15T05:31:55;99144.59;;;0.81;100.00
21129;BME280;10722;51.910;8.352;2024-01-15T05:34:45;99154.66;;;0.76;100.00
21129;BME280;10722;51.910;8.352;2024-01-15T05:37:31;99154.50;;;0.72;100.00
21129;BME280;10722;51.910;8.352;2024-01-15T05:40:16;99150.09;;;0.66;100.00
21129;BME280;10722;51.910;8.352;2024-01-15T05:43:01;99153.69;;;0.73;100.00
21129;BME280;10722;51.910;8.352;2024-01-15T05:45:47;99155.44;;;0.74;100.00
21129;BME280;10722;51.910;8.352;2024-01-15T05:48:31;99156.09;;;0.68;100.00
21129;BME280;10722;51.910;8.352;2024-01-15T05:51:17;99149.72;;;0.54;100.00
21129;BME280;10722;51.910;8.352;2024-01-15T05:54:02;99154.84;;;0.55;100.00
21129;BME280;10722;51.910;8.352;2024-01-15T05:56:47;99154.16;;;0.61;100.00
21129;BME280;10722;51.910;8.352;2024-01-15T05:59:32;99157.34;;;0.54;100.00
21129;BME280;10722;51.910;8.352;2024-01-15T06:02:17;99164.66;;;0.44;100.00
21129;BME280;10722;51.910;8.352;2024-01-15T06:05:03;99162.84;;;0.40;100.00
21129;BME280;10722;51.910;8.352;2024-01-15T06:07:48;99168.38;;;0.54;100.00
21129;BME280;10722;51.910;8.352;2024-01-15T06:10:33;99158.78;;;0.46;100.00
21129;BME280;10722;51.910;8.352;2024-01-15T06:13:18;99165.78;;;0.53;100.00
21129;BME280;10722;51.910;8.352;2024-01-15T06:16:03;99163.50;;;0.60;100.00
21129;BME280;10722;51.910;8.352;2024-01-15T06:18:56;99166.69;;;0.55;100.00
21129;BME280;10722;51.910;8.352;2024-01-15T06:21:42;99156.63;;;0.58;100.00
21129;BME280;10722;51.910;8.352;2024-01-15T06:24:27;99165.94;;;0.57;100.00
21129;BME280;10722;51.910;8.352;2024-01-15T06:27:13;99167.91;;;0.66;100.00
21129;BME280;10722;51.910;8.352;2024-01-15T06:29:58;99165.19;;;0.60;100.00
21129;BME280;10722;51.910;8.352;2024-01-15T06:32:43;99160.28;;;0.66;100.00
21129;BME280;10722;51.910;8.352;2024-01-15T06:35:28;99157.34;;;0.54;100.00
21129;BME280;10722;51.910;8.352;2024-01-15T06:38:13;99160.00;;;0.57;100.00
21129;BME280;10722;51.910;8.352;2024-01-15T06:40:58;99160.03;;;0.58;100.00
21129;BME280;10722;51.910;8.352;2024-01-15T06:43:43;99160.09;;;0.60;100.00
21129;BME280;10722;51.910;8.352;2024-01-15T06:46:28;99159.50;;;0.69;100.00
21129;BME280;10722;51.910;8.352;2024-01-15T06:49:13;99156.38;;;0.77;100.00
21129;BME280;10722;51.910;8.352;2024-01-15T06:51:58;99163.97;;;0.76;100.00
21129;BME280;10722;51.910;8.352;2024-01-15T06:54:44;99158.94;;;0.77;100.00
21129;BME280;10722;51.910;8.352;2024-01-15T06:57:29;99163.84;;;0.71;100.00
21129;BME280;10722;51.910;8.352;2024-01-15T07:00:15;99172.34;;;0.72;100.00
21129;BME280;10722;51.910;8.352;2024-01-15T07:03:00;99169.78;;;0.72;100.00
21129;BME280;10722;51.910;8.352;2024-01-15T07:05:45;99162.06;;;0.69;100.00
21129;BME280;10722;51.910;8.352;2024-01-15T07:08:30;99162.34;;;0.78;100.00
21129;BME280;10722;51.910;8.352;2024-01-15T07:11:15;99170.06;;;0.81;100.00
21129;BME280;10722;51.910;8.352;2024-01-15T07:14:00;99169.94;;;0.76;100.00
21129;BME280;10722;51.910;8.352;2024-01-15T07:16:45;99171.81;;;0.82;100.00
21129;BME280;10722;51.910;8.352;2024-01-15T07:19:32;99173.81;;;0.92;100.00
21129;BME280;10722;51.910;8.352;2024-01-15T07:22:18;99173.78;;;0.91;100.00
21129;BME280;10722;51.910;8.352;2024-01-15T07:25:03;99158.19;;;0.81;100.00
21129;BME280;10722;51.910;8.352;2024-01-15T07:27:49;99162.53;;;0.84;100.00
21129;BME280;10722;51.910;8.352;2024-01-15T07:30:34;99160.03;;;0.85;100.00
21129;BME280;10722;51.910;8.352;2024-01-15T07:33:20;99157.44;;;0.84;100.00
21129;BME280;10722;51.910;8.352;2024-01-15T07:36:05;99155.03;;;0.88;100.00
21129;BME280;10722;51.910;8.352;2024-01-15T07:38:50;99164.38;;;0.88;100.00
21129;BME280;10722;51.910;8.352;2024-01-15T07:41:35;99165.06;;;0.84;100.00
21129;BME280;10722;51.910;8.352;2024-01-15T07:44:20;99162.81;;;0.66;100.00
21129;BME280;10722;51.910;8.352;2024-01-15T07:47:05;99165.19;;;0.60;100.00
21129;BME280;10722;51.910;8.352;2024-01-15T07:49:50;99166.69;;;0.55;100.00
21129;BME280;10722;51.910;8.352;2024-01-15T07:52:36;99166.88;;;0.61;100.00
21129;BME280;10722;51.910;8.352;2024-01-15T07:55:21;99167.09;;;0.41;100.00
21129;BME280;10722;51.910;8.352;2024-01-15T07:58:06;99172.19;;;0.41;100.00
21129;BME280;10722;51.910;8.352;2024-01-15T08:01:00;99172.28;;;0.44;100.00
21129;BME280;10722;51.910;8.352;2024-01-15T08:03:46;99177.94;;;0.36;100.00
21129;BME280;10722;51.910;8.352;2024-01-15T08:06:31;99186.53;;;0.39;100.00
21129;BME280;10722;51.910;8.352;2024-01-15T08:09:17;99194.06;;;0.36;100.00
21129;BME280;10722;51.910;8.352;2024-01-15T08:12:02;99198.38;;;0.37;100.00
21129;BME280;10722;51.910;8.352;2024-01-15T08:14:47;99186.88;;;0.49;100.00
21129;BME280;10722;51.910;8.352;2024-01-15T08:17:32;99199.41;;;0.44;100.00
21129;BME280;10722;51.910;8.352;2024-01-15T08:20:17;99197.81;;;0.46;100.00
21129;BME280;10722;51.910;8.352;2024-01-15T08:23:03;99204.47;;;0.42;100.00
21129;BME280;10722;51.910;8.352;2024-01-15T08:25:49;99195.34;;;0.49;100.00
21129;BME280;10722;51.910;8.352;2024-01-15T08:28:33;99210.47;;;0.44;100.00
21129;BME280;10722;51.910;8.352;2024-01-15T08:31:20;99205.72;;;0.55;100.00
21129;BME280;10722;51.910;8.352;2024-01-15T08:34:05;99203.75;;;0.47;100.00
21129;BME280;10722;51.910;8.352;2024-01-15T08:36:50;99198.06;;;0.54;100.00
21129;BME280;10722;51.910;8.352;2024-01-15T08:39:36;99198.06;;;0.54;100.00
21129;BME280;10722;51.910;8.352;2024-01-15T08:42:21;99192.44;;;0.64;100.00
21129;BME280;10722;51.910;8.352;2024-01-15T08:45:06;99191.41;;;0.59;100.00
21129;BME280;10722;51.910;8.352;2024-01-15T08:47:51;99194.19;;;0.65;100.00
21129;BME280;10722;51.910;8.352;2024-01-15T08:50:36;99188.88;;;0.59;100.00
21129;BME280;10722;51.910;8.352;2024-01-15T08:53:21;99185.34;;;0.54;100.00
21129;BME280;10722;51.910;8.352;2024-01-15T08:56:06;99188.69;;;0.53;100.00
21129;BME280;10722;51.910;8.352;2024-01-15T08:58:51;99194.59;;;0.52;100.00
21129;BME280;10722;51.910;8.352;2024-01-15T09:01:36;99195.72;;;0.60;100.00
21129;BME280;10722;51.910;8.352;2024-01-15T09:04:21;99191.19;;;0.51;100.00
21129;BME280;10722;51.910;8.352;2024-01-15T09:07:07;99194.22;;;0.66;100.00
21129;BME280;10722;51.910;8.352;2024-01-15T09:09:53;99195.19;;;0.70;100.00
21129;BME280;10722;51.910;8.352;2024-01-15T09:12:38;99198.72;;;0.74;100.00
21129;BME280;10722;51.910;8.352;2024-01-15T09:15:23;99203.13;;;0.79;100.00
21129;BME280;10722;51.910;8.352;2024-01-15T09:18:08;99212.78;;;0.62;100.00
21129;BME280;10722;51.910;8.352;2024-01-15T09:20:53;99197.78;;;0.72;100.00
21129;BME280;10722;51.910;8.352;2024-01-15T09:23:38;99195.41;;;0.76;100.00
21129;BME280;10722;51.910;8.352;2024-01-15T09:26:23;99193.75;;;0.78;100.00
21129;BME280;10722;51.910;8.352;2024-01-15T09:29:09;99202.22;;;0.77;100.00
21129;BME280;10722;51.910;8.352;2024-01-15T09:31:53;99197.06;;;0.76;100.00
21129;BME280;10722;51.910;8.352;2024-01-15T09:34:39;99189.50;;;0.79;100.00
21129;BME280;10722;51.910;8.352;2024-01-15T09:37:24;99186.75;;;0.71;100.00
21129;BME280;10722;51.910;8.352;2024-01-15T09:40:31;99176.75;;;0.77;100.00
21129;BME280;10722;51.910;8.352;2024-01-15T09:43:17;99184.22;;;0.73;100.00
21129;BME280;10722;51.910;8.352;2024-01-15T09:46:02;99178.25;;;0.71;100.00
21129;BME280;10722;51.910;8.352;2024-01-15T09:48:47;99189.31;;;0.73;100.00
21129;BME280;10722;51.910;8.352;2024-01-15T09:51:32;99183.75;;;0.84;100.00
21129;BME280;10722;51.910;8.352;2024-01-15T09:54:18;99180.69;;;0.95;100.00
21129;BME280;10722;51.910;8.352;2024-01-15T09:57:03;99177.03;;;0.86;100.00
21129;BME280;10722;51.910;8.352;2024-01-15T09:59:49;99172.34;;;0.99;100.00
21129;BME280;10722;51.910;8.352;2024-01-15T10:02:35;99174.84;;;0.97;100.00
21129;BME280;10722;51.910;8.352;2024-01-15T10:05:20;99171.81;;;0.82;100.00
21129;BME280;10722;51.910;8.352;2024-01-15T10:08:05;99170.91;;;0.80;100.00
21129;BME280;10722;51.910;8.352;2024-01-15T10:10:50;99165.22;;;0.88;100.00
21129;BME280;10722;51.910;8.352;2024-01-15T10:13:36;99163.94;;;0.74;100.00
21129;BME280;10722;51.910;8.352;2024-01-15T10:16:28;99152.66;;;0.93;100.00
21129;BME280;10722;51.910;8.352;2024-01-15T10:19:13;99153.31;;;0.87;100.00
21129;BME280;10722;51.910;8.352;2024-01-15T10:21:58;99148.91;;;0.82;100.00
21129;BME280;10722;51.910;8.352;2024-01-15T10:24:44;99153.50;;;0.94;100.00
21129;BME280;10722;51.910;8.352;2024-01-15T10:27:29;99155.81;;;0.86;100.00
21129;BME280;10722;51.910;8.352;2024-01-15T10:30:14;99163.38;;;0.84;100.00
21129;BME280;10722;51.910;8.352;2024-01-15T10:33:01;99135.69;;;0.94;100.00
21129;BME280;10722;51.910;8.352;2024-01-15T10:35:47;99137.50;;;0.98;100.00
21129;BME280;10722;51.910;8.352;2024-01-15T10:38:32;99131.59;;;0.99;100.00
21129;BME280;10722;51.910;8.352;2024-01-15T10:41:17;99135.03;;;1.01;100.00
21129;BME280;10722;51.910;8.352;2024-01-15T10:44:02;99120.66;;;1.03;100.00
21129;BME280;10722;51.910;8.352;2024-01-15T10:46:47;99118.88;;;0.99;100.00
21129;BME280;10722;51.910;8.352;2024-01-15T10:49:32;99116.41;;;1.02;100.00
21129;BME280;10722;51.910;8.352;2024-01-15T10:52:18;99118.13;;;1.03;100.00
21129;BME280;10722;51.910;8.352;2024-01-15T10:55:05;99114.16;;;1.12;100.00
21129;BME280;10722;51.910;8.352;2024-01-15T10:57:57;99114.75;;;1.04;100.00
21129;BME280;10722;51.910;8.352;2024-01-15T11:00:43;99105.06;;;1.21;100.00
21129;BME280;10722;51.910;8.352;2024-01-15T11:03:28;99111.16;;;1.26;100.00
21129;BME280;10722;51.910;8.352;2024-01-15T11:06:18;99109.47;;;1.26;100.00
21129;BME280;10722;51.910;8.352;2024-01-15T11:09:03;99104.50;;;1.31;100.00
21129;BME280;10722;51.910;8.352;2024-01-15T11:11:52;99095.91;;;1.27;100.00
21129;BME280;10722;51.910;8.352;2024-01-15T11:14:44;99083.97;;;1.25;100.00
21129;BME280;10722;51.910;8.352;2024-01-15T11:18:00;99078.34;;;1.37;100.00
21129;BME280;10722;51.910;8.352;2024-01-15T11:24:00;99075.25;;;1.48;100.00
21129;BME280;10722;51.910;8.352;2024-01-15T11:26:46;99077.50;;;1.38;100.00
21129;BME280;10722;51.910;8.352;2024-01-15T11:29:36;99082.75;;;1.42;100.00
21129;BME280;10722;51.910;8.352;2024-01-15T11:32:33;99070.22;;;1.50;100.00
21129;BME280;10722;51.910;8.352;2024-01-15T11:35:19;99067.59;;;1.48;100.00
21129;BME280;10722;51.910;8.352;2024-01-15T11:38:04;99080.50;;;1.53;100.00
21129;BME280;10722;51.910;8.352;2024-01-15T11:40:49;99076.00;;;1.44;100.00
21129;BME280;10722;51.910;8.352;2024-01-15T11:43:35;99060.34;;;1.30;100.00
21129;BME280;10722;51.910;8.352;2024-01-15T11:46:19;99069.53;;;1.25;100.00
21129;BME280;10722;51.910;8.352;2024-01-15T11:49:06;99072.13;;;1.27;100.00
21129;BME280;10722;51.910;8.352;2024-01-15T11:51:55;99067.16;;;1.31;100.00
21129;BME280;10722;51.910;8.352;2024-01-15T11:54:48;99071.44;;;1.32;100.00
21129;BME280;10722;51.910;8.352;2024-01-15T11:57:52;99068.16;;;1.37;100.00
21129;BME280;10722;51.910;8.352;2024-01-15T12:00:43;99060.75;;;1.46;100.00
21129;BME280;10722;51.910;8.352;2024-01-15T12:03:32;99053.19;;;1.49;100.00
21129;BME280;10722;51.910;8.352;2024-01-15T12:06:17;99056.25;;;1.69;100.00
21129;BME280;10722;51.910;8.352;2024-01-15T12:09:07;99056.16;;;1.66;100.00
21129;BME280;10722;51.910;8.352;2024-01-15T12:12:17;99039.56;;;1.47;100.00
21129;BME280;10722;51.910;8.352;2024-01-15T12:15:04;99040.66;;;1.56;100.00
21129;BME280;10722;51.910;8.352;2024-01-15T12:17:49;99051.06;;;1.66;100.00
21129;BME280;10722;51.910;8.352;2024-01-15T12:20:36;99044.25;;;1.65;100.00
21129;BME280;10722;51.910;8.352;2024-01-15T12:23:21;99038.25;;;1.63;100.00
21129;BME280;10722;51.910;8.352;2024-01-15T12:26:06;99039.88;;;1.59;100.00
21129;BME280;10722;51.910;8.352;2024-01-15T12:28:51;99037.16;;;1.53;100.00
21129;BME280;10722;51.910;8.352;2024-01-15T12:31:38;99027.91;;;1.56;100.00
21129;BME280;10722;51.910;8.352;2024-01-15T12:34:29;99034.91;;;1.65;100.00
21129;BME280;10722;51.910;8.352;2024-01-15T12:37:14;99039.72;;;1.54;100.00
21129;BME280;10722;51.910;8.352;2024-01-15T12:39:59;99039.00;;;1.59;100.00
21129;BME280;10722;51.910;8.352;2024-01-15T12:42:44;99034.00;;;1.62;100.00
21129;BME280;10722;51.910;8.352;2024-01-15T12:45:30;99034.84;;;1.62;100.00
21129;BME280;10722;51.910;8.352;2024-01-15T12:48:14;99037.47;;;1.65;100.00
21129;BME280;10722;51.910;8.352;2024-01-15T12:51:00;99039.91;;;1.61;100.00
21129;BME280;10722;51.910;8.352;2024-01-15T12:53:45;99039.94;;;1.62;100.00
21129;BME280;10722;51.910;8.352;2024-01-15T12:56:30;99042.41;;;1.59;100.00
21129;BME280;10722;51.910;8.352;2024-01-15T12:59:15;99038.94;;;1.57;100.00
21129;BME280;10722;51.910;8.352;2024-01-15T13:02:00;99036.06;;;1.76;100.00
21129;BME280;10722;51.910;8.352;2024-01-15T13:04:45;99027.50;;;1.74;100.00
21129;BME280;10722;51.910;8.352;2024-01-15T13:07:31;99025.78;;;1.73;100.00
21129;BME280;10722;51.910;8.352;2024-01-15T13:10:16;99025.50;;;1.63;100.00
21129;BME280;10722;51.910;8.352;2024-01-15T13:13:00;99025.56;;;1.64;100.00
21129;BME280;10722;51.910;8.352;2024-01-15T13:15:45;99037.38;;;1.61;100.00
21129;BME280;10722;51.910;8.352;2024-01-15T13:18:30;99045.13;;;1.65;100.00
21129;BME280;10722;51.910;8.352;2024-01-15T13:21:16;99039.81;;;1.57;100.00
21129;BME280;10722;51.910;8.352;2024-01-15T13:24:01;99044.97;;;1.59;100.00
21129;BME280;10722;51.910;8.352;2024-01-15T13:26:46;99042.13;;;1.48;100.00
21129;BME280;10722;51.910;8.352;2024-01-15T13:29:30;99048.53;;;1.34;100.00
21129;BME280;10722;51.910;8.352;2024-01-15T13:32:23;99057.19;;;1.39;100.00
21129;BME280;10722;51.910;8.352;2024-01-15T13:35:08;99061.41;;;1.39;100.00
21129;BME280;10722;51.910;8.352;2024-01-15T13:37:53;99071.47;;;1.34;100.00
21129;BME280;10722;51.910;8.352;2024-01-15T13:40:38;99080.13;;;1.41;100.00
21129;BME280;10722;51.910;8.352;2024-01-15T13:43:23;99077.31;;;1.30;100.00
21129;BME280;10722;51.910;8.352;2024-01-15T13:46:08;99083.78;;;1.19;100.00
21129;BME280;10722;51.910;8.352;2024-01-15T13:48:53;99095.44;;;1.10;100.00
21129;BME280;10722;51.910;8.352;2024-01-15T13:51:38;99110.13;;;0.91;100.00
21129;BME280;10722;51.910;8.352;2024-01-15T13:54:23;99120.41;;;0.66;100.00
21129;BME280;10722;51.910;8.352;2024-01-15T13:57:21;99142.38;;;0.63;100.00
21129;BME280;10722;51.910;8.352;2024-01-15T14:00:06;99140.44;;;0.56;100.00
21129;BME280;10722;51.910;8.352;2024-01-15T14:02:52;99146.69;;;0.65;100.00
21129;BME280;10722;51.910;8.352;2024-01-15T14:05:36;99158.16;;;0.80;100.00
21129;BME280;10722;51.910;8.352;2024-01-15T14:08:21;99164.94;;;0.79;100.00
21129;BME280;10722;51.910;8.352;2024-01-15T14:11:06;99158.63;;;0.95;100.00
21129;BME280;10722;51.910;8.352;2024-01-15T14:13:51;99167.13;;;0.96;100.00
21129;BME280;10722;51.910;8.352;2024-01-15T14:16:36;99173.88;;;0.94;100.00
21129;BME280;10722;51.910;8.352;2024-01-15T14:19:21;99166.25;;;0.94;100.00
21129;BME280;10722;51.910;8.352;2024-01-15T14:22:07;99174.84;;;0.97;100.00
21129;BME280;10722;51.910;8.352;2024-01-15T14:24:52;99165.69;;;1.04;100.00
21129;BME280;10722;51.910;8.352;2024-01-15T14:27:37;99154.53;;;0.99;100.00
21129;BME280;10722;51.910;8.352;2024-01-15T14:30:22;99153.19;;;1.11;100.00
21129;BME280;10722;51.910;8.352;2024-01-15T14:33:07;99155.88;;;1.16;100.00
21129;BME280;10722;51.910;8.352;2024-01-15T14:35:53;99150.97;;;1.22;100.00
21129;BME280;10722;51.910;8.352;2024-01-15T14:38:38;99152.41;;;1.14;100.00
21129;BME280;10722;51.910;8.352;2024-01-15T14:41:24;99158.38;;;1.15;100.00